sensor_id;sensor_type;location;lat;lon;timestamp;temperature;humidity
10030;DHT22;5055;52.054;8.524;2023-04-01T00:01:07;9.50;97.00
10030;DHT22;5055;52.054;8.524;2023-04-01T00:03:36;9.50;97.00
10030;DHT22;5055;52.054;8.524;2023-04-01T00:06:04;9.50;97.00
10030;DHT22;5055;52.054;8.524;2023-04-01T00:08:34;9.50;97.00
10030;DHT22;5055;52.054;8.524;2023-04-01T00:11:03;9.50;97.00
10030;DHT22;5055;52.054;8.524;2023-04-01T00:13:31;9.50;97.00
10030;DHT22;5055;52.054;8.524;2023-04-01T00:15:59;9.50;97.00
10030;DHT22;5055;52.054;8.524;2023-04-01T00:18:35;9.50;97.00
10030;DHT22;5055;52.054;8.524;2023-04-01T00:21:04;9.50;97.00
10030;DHT22;5055;52.054;8.524;2023-04-01T00:23:34;9.50;97.00
10030;DHT22;5055;52.054;8.524;2023-04-01T00:26:03;9.50;97.00
10030;DHT22;5055;52.054;8.524;2023-04-01T00:28:34;9.40;97.00
10030;DHT22;5055;52.054;8.524;2023-04-01T00:31:05;9.40;97.00
10030;DHT22;5055;52.054;8.524;2023-04-01T00:33:34;9.40;97.00
10030;DHT22;5055;52.054;8.524;2023-04-01T00:36:07;9.40;97.00
10030;DHT22;5055;52.054;8.524;2023-04-01T00:38:37;9.40;97.00
10030;DHT22;5055;52.054;8.524;2023-04-01T00:41:06;9.40;97.00
10030;DHT22;5055;52.054;8.524;2023-04-01T00:43:35;9.40;97.00
10030;DHT22;5055;52.054;8.524;2023-04-01T00:46:04;9.40;97.00
10030;DHT22;5055;52.054;8.524;2023-04-01T00:48:34;9.40;97.00
10030;DHT22;5055;52.054;8.524;2023-04-01T00:51:07;9.40;97.00
10030;DHT22;5055;52.054;8.524;2023-04-01T00:53:40;9.40;97.00
10030;DHT22;5055;52.054;8.524;2023-04-01T00:56:11;9.40;97.00
10030;DHT22;5055;52.054;8.524;2023-04-01T00:58:46;9.40;97.00
10030;DHT22;5055;52.054;8.524;2023-04-01T01:01:15;9.40;97.00
10030;DHT22;5055;52.054;8.524;2023-04-01T01:03:43;9.40;97.00
10030;DHT22;5055;52.054;8.524;2023-04-01T01:06:23;9.40;97.00
10030;DHT22;5055;52.054;8.524;2023-04-01T01:09:12;9.40;97.00
10030;DHT22;5055;52.054;8.524;2023-04-01T01:11:47;9.40;97.00
10030;DHT22;5055;52.054;8.524;2023-04-01T01:14:29;9.40;97.00
10030;DHT22;5055;52.054;8.524;2023-04-01T01:17:08;9.40;97.00
10030;DHT22;5055;52.054;8.524;2023-04-01T01:25:49;9.40;97.00
10030;DHT22;5055;52.054;8.524;2023-04-01T01:28:35;9.40;97.00
10030;DHT22;5055;52.054;8.524;2023-04-01T01:31:12;9.40;97.00
10030;DHT22;5055;52.054;8.524;2023-04-01T01:34:01;9.40;97.00
10030;DHT22;5055;52.054;8.524;2023-04-01T01:36:36;9.30;97.00
10030;DHT22;5055;52.054;8.524;2023-04-01T01:39:08;9.40;97.00
10030;DHT22;5055;52.054;8.524;2023-04-01T01:41:38;9.40;97.00
10030;DHT22;5055;52.054;8.524;2023-04-01T01:44:08;9.40;97.00
10030;DHT22;5055;52.054;8.524;2023-04-01T01:46:39;9.40;97.00
10030;DHT22;5055;52.054;8.524;2023-04-01T01:49:10;9.40;97.00
10030;DHT22;5055;52.054;8.524;2023-04-01T01:51:42;9.40;97.00
10030;DHT22;5055;52.054;8.524;2023-04-01T01:54:12;9.40;97.00
10030;DHT22;5055;52.054;8.524;2023-04-01T01:56:43;9.40;97.00
10030;DHT22;5055;52.054;8.524;2023-04-01T01:59:15;9.40;97.00
10030;DHT22;5055;52.054;8.524;2023-04-01T02:01:48;9.40;97.00
10030;DHT22;5055;52.054;8.524;2023-04-01T02:04:28;9.40;97.00
10030;DHT22;5055;52.054;8.524;2023-04-01T02:07:08;9.50;97.00
10030;DHT22;5055;52.054;8.524;2023-04-01T02:09:52;9.40;97.00
10030;DHT22;5055;52.054;8.524;2023-04-01T02:12:29;9.40;97.00
10030;DHT22;5055;52.054;8.524;2023-04-01T02:15:07;9.40;97.00
10030;DHT22;5055;52.054;8.524;2023-04-01T02:17:44;9.40;97.00
10030;DHT22;5055;52.054;8.524;2023-04-01T02:20:26;9.40;97.00
10030;DHT22;5055;52.054;8.524;2023-04-01T02:23:15;9.30;97.00
10030;DHT22;5055;52.054;8.524;2023-04-01T02:25:52;9.30;97.00
10030;DHT22;5055;52.054;8.524;2023-04-01T02:28:30;9.30;97.00
10030;DHT22;5055;52.054;8.524;2023-04-01T02:31:04;9.30;97.00
10030;DHT22;5055;52.054;8.524;2023-04-01T02:33:38;9.30;97.00
10030;DHT22;5055;52.054;8.524;2023-04-01T02:36:12;9.30;97.00
10030;DHT22;5055;52.054;8.524;2023-04-01T02:38:44;9.30;97.00
10030;DHT22;5055;52.054;8.524;2023-04-01T02:41:13;9.30;97.00
10030;DHT22;5055;52.054;8.524;2023-04-01T02:43:42;9.30;97.00
10030;DHT22;5055;52.054;8.524;2023-04-01T02:46:10;9.20;97.00
10030;DHT22;5055;52.054;8.524;2023-04-01T02:48:38;9.30;97.00
10030;DHT22;5055;52.054;8.524;2023-04-01T02:51:08;9.30;97.00
10030;DHT22;5055;52.054;8.524;2023-04-01T02:53:37;9.30;97.00
10030;DHT22;5055;52.054;8.524;2023-04-01T02:56:07;9.30;97.00
10030;DHT22;5055;52.054;8.524;2023-04-01T02:58:35;9.30;97.00
10030;DHT22;5055;52.054;8.524;2023-04-01T03:01:03;9.30;97.00
10030;DHT22;5055;52.054;8.524;2023-04-01T03:03:32;9.30;97.00
10030;DHT22;5055;52.054;8.524;2023-04-01T03:06:05;9.30;97.00
10030;DHT22;5055;52.054;8.524;2023-04-01T03:08:34;9.30;97.00
10030;DHT22;5055;52.054;8.524;2023-04-01T03:11:02;9.30;97.00
10030;DHT22;5055;52.054;8.524;2023-04-01T03:13:32;9.30;97.00
10030;DHT22;5055;52.054;8.524;2023-04-01T03:16:01;9.30;97.00
10030;DHT22;5055;52.054;8.524;2023-04-01T03:18:29;9.30;97.00
10030;DHT22;5055;52.054;8.524;2023-04-01T03:21:12;9.30;97.00
10030;DHT22;5055;52.054;8.524;2023-04-01T03:23:41;9.30;97.00
10030;DHT22;5055;52.054;8.524;2023-04-01T03:26:09;9.30;97.00
10030;DHT22;5055;52.054;8.524;2023-04-01T03:28:39;9.30;97.00
10030;DHT22;5055;52.054;8.524;2023-04-01T03:31:08;9.30;97.00
10030;DHT22;5055;52.054;8.524;2023-04-01T03:33:36;9.30;97.00
10030;DHT22;5055;52.054;8.524;2023-04-01T03:36:05;9.30;97.00
10030;DHT22;5055;52.054;8.524;2023-04-01T03:38:34;9.30;97.00
10030;DHT22;5055;52.054;8.524;2023-04-01T03:41:03;9.20;97.00
10030;DHT22;5055;52.054;8.524;2023-04-01T03:43:32;9.20;97.00
10030;DHT22;5055;52.054;8.524;2023-04-01T03:46:01;9.20;97.00
10030;DHT22;5055;52.054;8.524;2023-04-01T03:48:30;9.20;97.00
10030;DHT22;5055;52.054;8.524;2023-04-01T03:50:58;9.30;97.00
10030;DHT22;5055;52.054;8.524;2023-04-01T03:53:26;9.30;97.00
10030;DHT22;5055;52.054;8.524;2023-04-01T03:55:55;9.20;97.00
10030;DHT22;5055;52.054;8.524;2023-04-01T03:58:23;9.20;97.00
10030;DHT22;5055;52.054;8.524;2023-04-01T04:00:51;9.20;97.00
10030;DHT22;5055;52.054;8.524;2023-04-01T04:03:21;9.20;97.00
10030;DHT22;5055;52.054;8.524;2023-04-01T04:05:50;9.20;97.00
10030;DHT22;5055;52.054;8.524;2023-04-01T04:08:18;9.20;97.00
10030;DHT22;5055;52.054;8.524;2023-04-01T04:10:54;9.20;97.00
10030;DHT22;5055;52.054;8.524;2023-04-01T04:13:23;9.20;97.00
10030;DHT22;5055;52.054;8.524;2023-04-01T04:15:51;9.20;97.00
10030;DHT22;5055;52.054;8.524;2023-04-01T04:18:21;9.20;97.00
10030;DHT22;5055;52.054;8.524;2023-04-01T04:20:52;9.20;97.00
10030;DHT22;5055;52.054;8.524;2023-04-01T04:23:21;9.10;97.00
10030;DHT22;5055;52.054;8.524;2023-04-01T04:25:54;9.10;97.00
10030;DHT22;5055;52.054;8.524;2023-04-01T04:28:23;9.10;97.00
10030;DHT22;5055;52.054;8.524;2023-04-01T04:30:52;9.10;97.00
10030;DHT22;5055;52.054;8.524;2023-04-01T04:33:22;9.20;97.00
10030;DHT22;5055;52.054;8.524;2023-04-01T04:35:53;9.20;97.00
10030;DHT22;5055;52.054;8.524;2023-04-01T04:38:22;9.20;97.00
10030;DHT22;5055;52.054;8.524;2023-04-01T04:40:52;9.20;97.00
10030;DHT22;5055;52.054;8.524;2023-04-01T04:43:20;9.20;97.00
10030;DHT22;5055;52.054;8.524;2023-04-01T04:45:49;9.20;97.00
10030;DHT22;5055;52.054;8.524;2023-04-01T04:48:17;9.20;97.00
10030;DHT22;5055;52.054;8.524;2023-04-01T04:50:49;9.20;97.00
10030;DHT22;5055;52.054;8.524;2023-04-01T04:53:19;9.10;97.00
10030;DHT22;5055;52.054;8.524;2023-04-01T04:55:48;9.10;97.00
10030;DHT22;5055;52.054;8.524;2023-04-01T04:58:17;9.10;97.00
10030;DHT22;5055;52.054;8.524;2023-04-01T05:00:46;9.10;97.00
10030;DHT22;5055;52.054;8.524;2023-04-01T05:03:14;9.10;97.00
10030;DHT22;5055;52.054;8.524;2023-04-01T05:05:51;9.10;97.00
10030;DHT22;5055;52.054;8.524;2023-04-01T05:08:20;9.10;97.00
10030;DHT22;5055;52.054;8.524;2023-04-01T05:10:48;9.10;97.00
10030;DHT22;5055;52.054;8.524;2023-04-01T05:13:16;9.10;97.00
10030;DHT22;5055;52.054;8.524;2023-04-01T05:15:45;9.10;97.00
10030;DHT22;5055;52.054;8.524;2023-04-01T05:18:13;9.10;97.00
10030;DHT22;5055;52.054;8.524;2023-04-01T05:20:46;9.00;97.00
10030;DHT22;5055;52.054;8.524;2023-04-01T05:23:17;9.00;97.00
10030;DHT22;5055;52.054;8.524;2023-04-01T05:25:47;9.00;97.00
10030;DHT22;5055;52.054;8.524;2023-04-01T05:28:16;9.00;97.00
10030;DHT22;5055;52.054;8.524;2023-04-01T05:30:45;9.00;97.00
10030;DHT22;5055;52.054;8.524;2023-04-01T05:33:14;9.00;97.00
10030;DHT22;5055;52.054;8.524;2023-04-01T05:35:42;9.00;97.00
10030;DHT22;5055;52.054;8.524;2023-04-01T05:38:11;9.00;97.00
10030;DHT22;5055;52.054;8.524;2023-04-01T05:40:41;9.00;97.00
10030;DHT22;5055;52.054;8.524;2023-04-01T05:43:09;9.00;97.00
10030;DHT22;5055;52.054;8.524;2023-04-01T05:45:37;9.00;97.00
10030;DHT22;5055;52.054;8.524;2023-04-01T05:48:06;9.00;97.00
10030;DHT22;5055;52.054;8.524;2023-04-01T05:50:34;9.00;97.00
10030;DHT22;5055;52.054;8.524;2023-04-01T05:53:02;9.00;97.00
10030;DHT22;5055;52.054;8.524;2023-04-01T05:55:31;9.00;97.00
10030;DHT22;5055;52.054;8.524;2023-04-01T05:58:01;9.00;97.00
10030;DHT22;5055;52.054;8.524;2023-04-01T06:00:29;9.00;97.00
10030;DHT22;5055;52.054;8.524;2023-04-01T06:02:58;9.00;97.00
10030;DHT22;5055;52.054;8.524;2023-04-01T06:05:29;9.00;97.00
10030;DHT22;5055;52.054;8.524;2023-04-01T06:08:00;9.00;97.00
10030;DHT22;5055;52.054;8.524;2023-04-01T06:10:37;9.00;97.00
10030;DHT22;5055;52.054;8.524;2023-04-01T06:13:18;9.00;97.00
10030;DHT22;5055;52.054;8.524;2023-04-01T06:15:52;9.10;97.00
10030;DHT22;5055;52.054;8.524;2023-04-01T06:18:52;9.10;97.00
10030;DHT22;5055;52.054;8.524;2023-04-01T06:21:37;9.10;97.00
10030;DHT22;5055;52.054;8.524;2023-04-01T06:24:23;9.20;97.00
10030;DHT22;5055;52.054;8.524;2023-04-01T06:27:04;9.20;97.00
10030;DHT22;5055;52.054;8.524;2023-04-01T06:29:47;9.30;97.00
10030;DHT22;5055;52.054;8.524;2023-04-01T06:32:39;9.30;97.00
10030;DHT22;5055;52.054;8.524;2023-04-01T06:38:42;9.40;97.00
10030;DHT22;5055;52.054;8.524;2023-04-01T06:44:31;9.50;97.00
10030;DHT22;5055;52.054;8.524;2023-04-01T06:47:24;9.50;97.00
10030;DHT22;5055;52.054;8.524;2023-04-01T06:50:03;9.60;97.00
10030;DHT22;5055;52.054;8.524;2023-04-01T06:52:42;9.50;97.00
10030;DHT22;5055;52.054;8.524;2023-04-01T06:55:29;9.50;97.00
10030;DHT22;5055;52.054;8.524;2023-04-01T06:58:01;9.60;97.00
10030;DHT22;5055;52.054;8.524;2023-04-01T07:00:36;9.50;97.00
10030;DHT22;5055;52.054;8.524;2023-04-01T07:03:16;9.50;97.00
10030;DHT22;5055;52.054;8.524;2023-04-01T07:05:46;9.40;97.00
10030;DHT22;5055;52.054;8.524;2023-04-01T07:08:18;9.40;97.00
10030;DHT22;5055;52.054;8.524;2023-04-01T07:10:50;9.40;97.00
10030;DHT22;5055;52.054;8.524;2023-04-01T07:13:24;9.40;97.00
10030;DHT22;5055;52.054;8.524;2023-04-01T07:16:03;9.30;97.00
10030;DHT22;5055;52.054;8.524;2023-04-01T07:18:37;9.30;97.00
10030;DHT22;5055;52.054;8.524;2023-04-01T07:21:14;9.30;97.00
10030;DHT22;5055;52.054;8.524;2023-04-01T07:23:46;9.30;97.00
10030;DHT22;5055;52.054;8.524;2023-04-01T07:26:19;9.30;97.00
10030;DHT22;5055;52.054;8.524;2023-04-01T07:28:49;9.30;97.00
10030;DHT22;5055;52.054;8.524;2023-04-01T07:31:39;9.30;97.00
10030;DHT22;5055;52.054;8.524;2023-04-01T07:34:21;9.30;97.00
10030;DHT22;5055;52.054;8.524;2023-04-01T07:36:56;9.30;97.00
10030;DHT22;5055;52.054;8.524;2023-04-01T07:39:37;9.30;97.00
10030;DHT22;5055;52.054;8.524;2023-04-01T07:42:16;9.30;97.00
10030;DHT22;5055;52.054;8.524;2023-04-01T07:44:54;9.30;97.00
10030;DHT22;5055;52.054;8.524;2023-04-01T07:47:44;9.30;97.00
10030;DHT22;5055;52.054;8.524;2023-04-01T07:50:21;9.40;97.00
10030;DHT22;5055;52.054;8.524;2023-04-01T07:53:00;9.50;97.00
10030;DHT22;5055;52.054;8.524;2023-04-01T07:55:34;9.50;97.00
10030;DHT22;5055;52.054;8.524;2023-04-01T07:58:08;9.60;97.00
10030;DHT22;5055;52.054;8.524;2023-04-01T08:00:44;9.70;97.00
10030;DHT22;5055;52.054;8.524;2023-04-01T08:03:35;9.80;97.00
10030;DHT22;5055;52.054;8.524;2023-04-01T08:06:12;9.90;97.00
10030;DHT22;5055;52.054;8.524;2023-04-01T08:08:50;9.90;97.00
10030;DHT22;5055;52.054;8.524;2023-04-01T08:11:29;10.00;97.00
10030;DHT22;5055;52.054;8.524;2023-04-01T08:14:08;10.00;97.00
10030;DHT22;5055;52.054;8.524;2023-04-01T08:16:47;10.00;97.00
10030;DHT22;5055;52.054;8.524;2023-04-01T08:19:28;10.10;97.00
10030;DHT22;5055;52.054;8.524;2023-04-01T08:22:03;10.10;97.00
10030;DHT22;5055;52.054;8.524;2023-04-01T08:24:37;10.10;97.00
10030;DHT22;5055;52.054;8.524;2023-04-01T08:27:19;10.10;97.00
10030;DHT22;5055;52.054;8.524;2023-04-01T08:29:52;10.20;97.00
10030;DHT22;5055;52.054;8.524;2023-04-01T08:32:26;10.40;97.00
10030;DHT22;5055;52.054;8.524;2023-04-01T08:35:06;10.50;97.00
10030;DHT22;5055;52.054;8.524;2023-04-01T08:37:39;10.60;97.00
10030;DHT22;5055;52.054;8.524;2023-04-01T08:40:32;10.60;97.00
10030;DHT22;5055;52.054;8.524;2023-04-01T08:43:09;10.80;97.00
10030;DHT22;5055;52.054;8.524;2023-04-01T08:46:06;10.80;97.00
10030;DHT22;5055;52.054;8.524;2023-04-01T08:48:59;10.90;97.00
10030;DHT22;5055;52.054;8.524;2023-04-01T08:52:00;10.90;97.00
10030;DHT22;5055;52.054;8.524;2023-04-01T08:54:54;10.90;97.00
10030;DHT22;5055;52.054;8.524;2023-04-01T08:57:39;11.10;97.00
10030;DHT22;5055;52.054;8.524;2023-04-01T09:00:22;11.20;97.00
10030;DHT22;5055;52.054;8.524;2023-04-01T09:06:28;11.20;97.00
10030;DHT22;5055;52.054;8.524;2023-04-01T09:12:14;11.30;97.00
10030;DHT22;5055;52.054;8.524;2023-04-01T09:21:22;11.50;97.00
10030;DHT22;5055;52.054;8.524;2023-04-01T09:24:19;11.50;97.00
10030;DHT22;5055;52.054;8.524;2023-04-01T09:27:10;11.70;97.00
10030;DHT22;5055;52.054;8.524;2023-04-01T09:30:11;11.60;97.00
10030;DHT22;5055;52.054;8.524;2023-04-01T09:36:02;12.00;97.00
10030;DHT22;5055;52.054;8.524;2023-04-01T09:38:44;12.00;97.00
10030;DHT22;5055;52.054;8.524;2023-04-01T09:41:26;12.10;97.00
10030;DHT22;5055;52.054;8.524;2023-04-01T09:44:03;12.20;97.00
10030;DHT22;5055;52.054;8.524;2023-04-01T09:46:43;12.20;97.00
10030;DHT22;5055;52.054;8.524;2023-04-01T09:49:30;12.30;97.00
10030;DHT22;5055;52.054;8.524;2023-04-01T09:52:15;12.30;97.00
10030;DHT22;5055;52.054;8.524;2023-04-01T09:55:06;12.30;97.00
10030;DHT22;5055;52.054;8.524;2023-04-01T10:01:31;12.30;97.00
10030;DHT22;5055;52.054;8.524;2023-04-01T10:07:36;12.30;97.00
10030;DHT22;5055;52.054;8.524;2023-04-01T10:13:56;11.90;97.00
10030;DHT22;5055;52.054;8.524;2023-04-01T10:16:50;11.90;97.00
10030;DHT22;5055;52.054;8.524;2023-04-01T10:19:48;11.90;97.00
10030;DHT22;5055;52.054;8.524;2023-04-01T10:22:49;11.80;97.00
10030;DHT22;5055;52.054;8.524;2023-04-01T10:25:37;11.60;97.00
10030;DHT22;5055;52.054;8.524;2023-04-01T10:31:57;11.60;97.00
10030;DHT22;5055;52.054;8.524;2023-04-01T10:38:19;11.90;97.00
10030;DHT22;5055;52.054;8.524;2023-04-01T10:41:12;12.20;97.00
10030;DHT22;5055;52.054;8.524;2023-04-01T10:53:36;12.50;97.00
10030;DHT22;5055;52.054;8.524;2023-04-01T10:59:44;12.50;97.00
10030;DHT22;5055;52.054;8.524;2023-04-01T11:08:55;12.40;97.00
10030;DHT22;5055;52.054;8.524;2023-04-01T11:12:13;12.40;97.00
10030;DHT22;5055;52.054;8.524;2023-04-01T11:21:30;12.00;97.00
10030;DHT22;5055;52.054;8.524;2023-04-01T11:27:46;12.20;97.00
10030;DHT22;5055;52.054;8.524;2023-04-01T11:30:26;12.40;97.00
10030;DHT22;5055;52.054;8.524;2023-04-01T11:33:00;12.70;97.00
10030;DHT22;5055;52.054;8.524;2023-04-01T11:35:48;13.00;97.00
10030;DHT22;5055;52.054;8.524;2023-04-01T11:38:52;13.10;97.00
10030;DHT22;5055;52.054;8.524;2023-04-01T11:41:31;13.20;97.00
10030;DHT22;5055;52.054;8.524;2023-04-01T11:47:30;13.30;97.00
10030;DHT22;5055;52.054;8.524;2023-04-01T11:50:17;13.20;97.00
10030;DHT22;5055;52.054;8.524;2023-04-01T11:53:10;13.00;97.00
10030;DHT22;5055;52.054;8.524;2023-04-01T11:55:50;12.90;97.00
10030;DHT22;5055;52.054;8.524;2023-04-01T11:58:53;12.80;97.00
10030;DHT22;5055;52.054;8.524;2023-04-01T12:01:41;12.60;97.00
10030;DHT22;5055;52.054;8.524;2023-04-01T12:04:45;12.50;97.00
10030;DHT22;5055;52.054;8.524;2023-04-01T12:07:40;12.50;97.00
10030;DHT22;5055;52.054;8.524;2023-04-01T12:10:17;12.50;97.00
10030;DHT22;5055;52.054;8.524;2023-04-01T12:12:54;12.60;97.00
10030;DHT22;5055;52.054;8.524;2023-04-01T12:15:35;12.60;97.00
10030;DHT22;5055;52.054;8.524;2023-04-01T12:18:14;12.70;97.00
10030;DHT22;5055;52.054;8.524;2023-04-01T12:20:49;12.70;97.00
10030;DHT22;5055;52.054;8.524;2023-04-01T12:23:46;12.70;97.00
10030;DHT22;5055;52.054;8.524;2023-04-01T12:26:43;12.70;97.00
10030;DHT22;5055;52.054;8.524;2023-04-01T12:32:25;12.70;97.00
10030;DHT22;5055;52.054;8.524;2023-04-01T12:35:13;12.60;97.00
10030;DHT22;5055;52.054;8.524;2023-04-01T12:37:54;12.80;97.00
10030;DHT22;5055;52.054;8.524;2023-04-01T12:40:31;12.80;97.00
10030;DHT22;5055;52.054;8.524;2023-04-01T12:43:32;12.90;97.00
10030;DHT22;5055;52.054;8.524;2023-04-01T12:46:10;12.90;97.00
10030;DHT22;5055;52.054;8.524;2023-04-01T12:52:10;12.80;97.00
10030;DHT22;5055;52.054;8.524;2023-04-01T12:55:23;12.90;97.00
10030;DHT22;5055;52.054;8.524;2023-04-01T12:58:20;12.80;97.00
10030;DHT22;5055;52.054;8.524;2023-04-01T13:04:08;12.80;97.00
10030;DHT22;5055;52.054;8.524;2023-04-01T13:06:53;12.80;97.00
10030;DHT22;5055;52.054;8.524;2023-04-01T13:09:34;12.90;97.00
10030;DHT22;5055;52.054;8.524;2023-04-01T13:12:27;12.90;97.00
10030;DHT22;5055;52.054;8.524;2023-04-01T13:15:16;12.90;97.00
10030;DHT22;5055;52.054;8.524;2023-04-01T13:17:53;13.00;97.00
10030;DHT22;5055;52.054;8.524;2023-04-01T13:20:36;13.00;97.00
10030;DHT22;5055;52.054;8.524;2023-04-01T13:23:17;13.00;97.00
10030;DHT22;5055;52.054;8.524;2023-04-01T13:25:53;12.70;97.00
10030;DHT22;5055;52.054;8.524;2023-04-01T13:28:46;12.50;97.00
10030;DHT22;5055;52.054;8.524;2023-04-01T13:31:26;12.40;97.00
10030;DHT22;5055;52.054;8.524;2023-04-01T13:34:09;12.20;97.00
10030;DHT22;5055;52.054;8.524;2023-04-01T13:36:48;12.20;97.00
10030;DHT22;5055;52.054;8.524;2023-04-01T13:39:40;12.10;97.00
10030;DHT22;5055;52.054;8.524;2023-04-01T13:42:23;12.10;97.00
10030;DHT22;5055;52.054;8.524;2023-04-01T13:44:59;12.20;97.00
10030;DHT22;5055;52.054;8.524;2023-04-01T13:47:55;12.20;97.00
10030;DHT22;5055;52.054;8.524;2023-04-01T13:50:37;12.10;97.00
10030;DHT22;5055;52.054;8.524;2023-04-01T13:56:16;12.20;97.00
10030;DHT22;5055;52.054;8.524;2023-04-01T13:59:16;12.30;97.00
10030;DHT22;5055;52.054;8.524;2023-04-01T14:02:11;12.40;97.00
10030;DHT22;5055;52.054;8.524;2023-04-01T14:04:56;12.50;97.00
10030;DHT22;5055;52.054;8.524;2023-04-01T14:07:46;12.50;97.00
10030;DHT22;5055;52.054;8.524;2023-04-01T14:10:25;12.50;97.00
10030;DHT22;5055;52.054;8.524;2023-04-01T14:13:07;12.40;97.00
10030;DHT22;5055;52.054;8.524;2023-04-01T14:15:47;12.40;97.00
10030;DHT22;5055;52.054;8.524;2023-04-01T14:18:39;12.40;97.00
10030;DHT22;5055;52.054;8.524;2023-04-01T14:21:27;12.40;97.00
10030;DHT22;5055;52.054;8.524;2023-04-01T14:24:08;12.30;97.00
10030;DHT22;5055;52.054;8.524;2023-04-01T14:27:12;12.30;97.00
10030;DHT22;5055;52.054;8.524;2023-04-01T14:29:59;12.20;97.00
10030;DHT22;5055;52.054;8.524;2023-04-01T14:32:42;12.10;97.00
10030;DHT22;5055;52.054;8.524;2023-04-01T14:35:31;12.10;97.00
10030;DHT22;5055;52.054;8.524;2023-04-01T14:38:26;12.10;97.00
10030;DHT22;5055;52.054;8.524;2023-04-01T14:41:06;12.10;97.00
10030;DHT22;5055;52.054;8.524;2023-04-01T14:44:05;12.10;97.00
10030;DHT22;5055;52.054;8.524;2023-04-01T14:49:53;12.10;97.00
10030;DHT22;5055;52.054;8.524;2023-04-01T14:52:27;12.10;97.00
10030;DHT22;5055;52.054;8.524;2023-04-01T14:54:57;12.10;97.00
10030;DHT22;5055;52.054;8.524;2023-04-01T14:57:28;12.10;97.00
10030;DHT22;5055;52.054;8.524;2023-04-01T15:00:01;12.10;97.00
10030;DHT22;5055;52.054;8.524;2023-04-01T15:02:47;12.10;97.00
10030;DHT22;5055;52.054;8.524;2023-04-01T15:05:26;12.00;97.00
10030;DHT22;5055;52.054;8.524;2023-04-01T15:08:05;11.90;97.00
10030;DHT22;5055;52.054;8.524;2023-04-01T15:10:49;11.90;97.00
10030;DHT22;5055;52.054;8.524;2023-04-01T15:13:43;11.80;97.00
10030;DHT22;5055;52.054;8.524;2023-04-01T15:16:22;11.70;97.00
10030;DHT22;5055;52.054;8.524;2023-04-01T15:19:01;11.70;97.00
10030;DHT22;5055;52.054;8.524;2023-04-01T15:22:04;11.70;97.00
10030;DHT22;5055;52.054;8.524;2023-04-01T15:24:46;11.70;97.00
10030;DHT22;5055;52.054;8.524;2023-04-01T15:27:27;11.70;97.00
10030;DHT22;5055;52.054;8.524;2023-04-01T15:30:16;11.60;97.00
10030;DHT22;5055;52.054;8.524;2023-04-01T15:33:01;11.60;97.00
10030;DHT22;5055;52.054;8.524;2023-04-01T15:35:39;11.60;97.00
10030;DHT22;5055;52.054;8.524;2023-04-01T15:38:25;11.60;97.00
10030;DHT22;5055;52.054;8.524;2023-04-01T15:41:03;11.70;97.00
10030;DHT22;5055;52.054;8.524;2023-04-01T15:43:41;11.70;97.00
10030;DHT22;5055;52.054;8.524;2023-04-01T15:46:27;11.70;97.00
10030;DHT22;5055;52.054;8.524;2023-04-01T15:49:15;11.70;97.00
10030;DHT22;5055;52.054;8.524;2023-04-01T15:52:11;11.60;97.00
10030;DHT22;5055;52.054;8.524;2023-04-01T15:55:19;11.60;97.00
10030;DHT22;5055;52.054;8.524;2023-04-01T15:58:03;11.60;97.00
10030;DHT22;5055;52.054;8.524;2023-04-01T16:00:42;11.60;97.00
10030;DHT22;5055;52.054;8.524;2023-04-01T16:03:23;11.60;97.00
10030;DHT22;5055;52.054;8.524;2023-04-01T16:06:18;11.50;97.00
10030;DHT22;5055;52.054;8.524;2023-04-01T16:09:06;11.40;97.00
10030;DHT22;5055;52.054;8.524;2023-04-01T16:11:45;11.40;97.00
10030;DHT22;5055;52.054;8.524;2023-04-01T16:14:28;11.40;97.00
10030;DHT22;5055;52.054;8.524;2023-04-01T16:17:08;11.40;97.00
10030;DHT22;5055;52.054;8.524;2023-04-01T16:19:51;11.30;97.00
10030;DHT22;5055;52.054;8.524;2023-04-01T16:22:25;11.30;97.00
10030;DHT22;5055;52.054;8.524;2023-04-01T16:25:05;11.20;97.00
10030;DHT22;5055;52.054;8.524;2023-04-01T16:27:46;11.20;97.00
10030;DHT22;5055;52.054;8.524;2023-04-01T16:30:32;11.20;97.00
10030;DHT22;5055;52.054;8.524;2023-04-01T16:33:04;11.20;97.00
10030;DHT22;5055;52.054;8.524;2023-04-01T16:35:43;11.10;97.00
10030;DHT22;5055;52.054;8.524;2023-04-01T16:38:18;11.10;97.00
10030;DHT22;5055;52.054;8.524;2023-04-01T16:40:59;11.10;97.00
10030;DHT22;5055;52.054;8.524;2023-04-01T16:43:35;11.10;97.00
10030;DHT22;5055;52.054;8.524;2023-04-01T16:46:23;11.10;97.00
10030;DHT22;5055;52.054;8.524;2023-04-01T16:49:25;11.10;97.00
10030;DHT22;5055;52.054;8.524;2023-04-01T16:52:04;11.10;97.00
10030;DHT22;5055;52.054;8.524;2023-04-01T16:54:44;11.10;97.00
10030;DHT22;5055;52.054;8.524;2023-04-01T16:57:23;11.10;97.00
10030;DHT22;5055;52.054;8.524;2023-04-01T17:00:01;11.00;97.00
10030;DHT22;5055;52.054;8.524;2023-04-01T17:02:35;11.00;97.00
10030;DHT22;5055;52.054;8.524;2023-04-01T17:05:08;10.90;97.00
10030;DHT22;5055;52.054;8.524;2023-04-01T17:07:46;10.80;97.00
10030;DHT22;5055;52.054;8.524;2023-04-01T17:10:28;10.60;97.00
10030;DHT22;5055;52.054;8.524;2023-04-01T17:16:00;10.50;97.00
10030;DHT22;5055;52.054;8.524;2023-04-01T17:18:40;10.30;97.00
10030;DHT22;5055;52.054;8.524;2023-04-01T17:21:13;10.30;97.00
10030;DHT22;5055;52.054;8.524;2023-04-01T17:23:50;10.20;97.00
10030;DHT22;5055;52.054;8.524;2023-04-01T17:26:28;10.10;97.00
10030;DHT22;5055;52.054;8.524;2023-04-01T17:29:11;10.00;97.00
10030;DHT22;5055;52.054;8.524;2023-04-01T17:31:46;10.00;97.00
10030;DHT22;5055;52.054;8.524;2023-04-01T17:34:40;9.90;97.00
10030;DHT22;5055;52.054;8.524;2023-04-01T17:37:32;9.80;97.00
10030;DHT22;5055;52.054;8.524;2023-04-01T17:40:30;9.80;97.00
10030;DHT22;5055;52.054;8.524;2023-04-01T17:43:08;9.80;97.00
10030;DHT22;5055;52.054;8.524;2023-04-01T17:45:45;9.70;97.00
10030;DHT22;5055;52.054;8.524;2023-04-01T17:48:24;9.60;97.00
10030;DHT22;5055;52.054;8.524;2023-04-01T17:51:19;9.60;97.00
10030;DHT22;5055;52.054;8.524;2023-04-01T17:53:59;9.50;97.00
10030;DHT22;5055;52.054;8.524;2023-04-01T17:56:39;9.50;97.00
10030;DHT22;5055;52.054;8.524;2023-04-01T17:59:19;9.40;97.00
10030;DHT22;5055;52.054;8.524;2023-04-01T18:01:59;9.40;97.00
10030;DHT22;5055;52.054;8.524;2023-04-01T18:04:43;9.30;97.00
10030;DHT22;5055;52.054;8.524;2023-04-01T18:07:38;9.30;97.00
10030;DHT22;5055;52.054;8.524;2023-04-01T18:10:24;9.30;97.00
10030;DHT22;5055;52.054;8.524;2023-04-01T18:13:23;9.20;97.00
10030;DHT22;5055;52.054;8.524;2023-04-01T18:16:02;9.10;97.00
10030;DHT22;5055;52.054;8.524;2023-04-01T18:18:48;9.10;97.00
10030;DHT22;5055;52.054;8.524;2023-04-01T18:21:27;9.10;97.00
10030;DHT22;5055;52.054;8.524;2023-04-01T18:24:05;9.10;97.00
10030;DHT22;5055;52.054;8.524;2023-04-01T18:26:40;9.00;97.00
10030;DHT22;5055;52.054;8.524;2023-04-01T18:29:17;8.90;97.00
10030;DHT22;5055;52.054;8.524;2023-04-01T18:31:52;8.90;97.00
10030;DHT22;5055;52.054;8.524;2023-04-01T18:34:36;8.80;97.00
10030;DHT22;5055;52.054;8.524;2023-04-01T18:37:18;8.80;97.00
10030;DHT22;5055;52.054;8.524;2023-04-01T18:39:51;8.70;97.00
10030;DHT22;5055;52.054;8.524;2023-04-01T18:42:29;8.70;97.00
10030;DHT22;5055;52.054;8.524;2023-04-01T18:45:14;8.70;97.00
10030;DHT22;5055;52.054;8.524;2023-04-01T18:47:47;8.60;97.00